createdAt,value
2023-05-09T00:01:35.468Z,2.88
2023-05-09T00:04:01.879Z,2.82
2023-05-09T00:06:31.268Z,2.77
2023-05-09T00:08:57.594Z,2.73
2023-05-09T00:11:24.565Z,2.70
2023-05-09T00:13:51.083Z,2.69
2023-05-09T00:16:17.697Z,2.68
2023-05-09T00:18:44.036Z,2.67
2023-05-09T00:21:10.563Z,2.66
2023-05-09T00:23:37.654Z,2.63
2023-05-09T00:26:06.798Z,2.62
2023-05-09T00:28:33.109Z,2.60
2023-05-09T00:30:59.465Z,2.55
2023-05-09T00:33:25.975Z,2.54
2023-05-09T00:35:53.467Z,2.52
2023-05-09T00:38:20.168Z,2.51
2023-05-09T00:40:46.587Z,2.49
2023-05-09T00:43:15.251Z,2.48
2023-05-09T00:45:42.266Z,2.45
2023-05-09T00:48:11.855Z,2.42
2023-05-09T00:50:38.141Z,2.39
2023-05-09T00:53:04.925Z,2.34
2023-05-09T00:55:34.434Z,2.31
2023-05-09T00:58:02.118Z,2.31
2023-05-09T01:00:28.720Z,2.31
2023-05-09T01:02:55.894Z,2.30
2023-05-09T01:05:28.927Z,2.28
2023-05-09T01:07:55.291Z,2.26
2023-05-09T01:10:38.860Z,2.24
2023-05-09T01:13:09.691Z,2.23
2023-05-09T01:15:38.962Z,2.21
2023-05-09T01:18:16.782Z,2.19
2023-05-09T01:20:45.982Z,2.18
2023-05-09T01:23:15.453Z,2.15
2023-05-09T01:26:13.793Z,2.15
2023-05-09T01:28:40.137Z,2.15
2023-05-09T01:31:08.121Z,2.14
2023-05-09T01:33:37.717Z,2.13
2023-05-09T01:36:07.237Z,2.13
2023-05-09T01:38:37.011Z,2.11
2023-05-09T01:41:05.045Z,2.10
2023-05-09T01:43:32.659Z,2.09
2023-05-09T01:45:59.109Z,2.08
2023-05-09T01:48:39.332Z,2.05
2023-05-09T01:51:06.322Z,2.04
2023-05-09T01:53:33.735Z,2.01
2023-05-09T01:56:02.557Z,1.99
2023-05-09T01:58:37.574Z,1.97
2023-05-09T02:01:09.776Z,1.94
2023-05-09T02:03:43.882Z,1.91
2023-05-09T02:06:21.498Z,1.89
2023-05-09T02:08:49.005Z,1.87
2023-05-09T02:11:16.047Z,1.86
2023-05-09T02:13:42.510Z,1.84
2023-05-09T02:16:09.516Z,1.81
2023-05-09T02:18:36.128Z,1.77
2023-05-09T02:21:02.816Z,1.77
2023-05-09T02:23:29.731Z,1.77
2023-05-09T02:25:56.293Z,1.78
2023-05-09T02:28:24.806Z,1.77
2023-05-09T02:30:52.518Z,1.73
2023-05-09T02:33:19.072Z,1.67
2023-05-09T02:35:46.027Z,1.65
2023-05-09T02:38:13.039Z,1.63
2023-05-09T02:40:41.605Z,1.61
2023-05-09T02:43:08.006Z,1.56
2023-05-09T02:45:36.780Z,1.56
2023-05-09T02:48:03.609Z,1.56
2023-05-09T02:50:31.009Z,1.56
2023-05-09T02:52:57.371Z,1.57
2023-05-09T02:55:24.006Z,1.56
2023-05-09T02:57:56.253Z,1.55
2023-05-09T03:00:30.986Z,1.54
2023-05-09T03:02:57.606Z,1.54
2023-05-09T03:05:24.028Z,1.53
2023-05-09T03:07:50.344Z,1.54
2023-05-09T03:10:16.987Z,1.55
2023-05-09T03:12:43.599Z,1.57
2023-05-09T03:15:12.771Z,1.60
2023-05-09T03:17:39.904Z,1.63
2023-05-09T03:20:08.801Z,1.64
2023-05-09T03:22:35.398Z,1.65
2023-05-09T03:25:03.067Z,1.68
2023-05-09T03:27:29.459Z,1.72
2023-05-09T03:29:56.110Z,1.76
2023-05-09T03:32:22.585Z,1.80
2023-05-09T03:34:49.243Z,1.85
2023-05-09T03:37:16.077Z,1.89
2023-05-09T03:39:42.812Z,1.96
2023-05-09T03:42:09.252Z,2.04
2023-05-09T03:44:36.035Z,2.14
2023-05-09T03:47:02.424Z,2.26
2023-05-09T03:49:33.630Z,2.37
2023-05-09T03:52:00.205Z,2.46
2023-05-09T03:54:27.018Z,2.56
2023-05-09T03:56:53.361Z,2.67
2023-05-09T03:59:19.810Z,2.78
2023-05-09T04:01:46.334Z,2.89
2023-05-09T04:04:12.958Z,3.00
2023-05-09T04:06:39.518Z,3.10
2023-05-09T04:09:06.954Z,3.19
2023-05-09T04:11:34.050Z,3.28
2023-05-09T04:14:01.049Z,3.40
2023-05-09T04:16:32.831Z,3.50
2023-05-09T04:18:59.392Z,3.60
2023-05-09T04:21:25.770Z,3.70
2023-05-09T04:23:53.832Z,3.82
2023-05-09T04:26:25.452Z,3.92
2023-05-09T04:28:53.271Z,4.00
2023-05-09T04:31:20.120Z,4.08
2023-05-09T04:33:49.153Z,4.19
2023-05-09T04:36:15.630Z,4.30
2023-05-09T04:38:42.241Z,4.38
2023-05-09T04:41:11.534Z,4.48
2023-05-09T04:43:40.477Z,4.59
2023-05-09T04:46:07.159Z,4.69
2023-05-09T04:48:34.291Z,4.78
2023-05-09T04:51:01.267Z,4.86
2023-05-09T04:53:28.208Z,4.95
2023-05-09T04:55:54.991Z,5.06
2023-05-09T04:58:24.683Z,5.20
2023-05-09T05:00:51.151Z,5.32
2023-05-09T05:03:17.864Z,5.45
2023-05-09T05:05:44.646Z,5.58
2023-05-09T05:08:20.373Z,5.72
2023-05-09T05:10:47.462Z,5.85
2023-05-09T05:13:15.346Z,5.97
2023-05-09T05:15:43.603Z,6.11
2023-05-09T05:18:10.404Z,6.24
2023-05-09T05:20:39.336Z,6.36
2023-05-09T05:23:05.766Z,6.50
2023-05-09T05:25:32.226Z,6.62
2023-05-09T05:28:14.059Z,6.73
2023-05-09T05:30:43.570Z,6.85
2023-05-09T05:33:11.072Z,6.99
2023-05-09T05:35:38.332Z,7.11
2023-05-09T05:38:08.093Z,7.28
2023-05-09T05:40:34.794Z,7.45
2023-05-09T05:43:02.799Z,7.60
2023-05-09T05:45:30.322Z,7.72
2023-05-09T05:47:57.221Z,7.82
2023-05-09T05:50:30.127Z,7.92
2023-05-09T05:52:57.186Z,8.03
2023-05-09T05:55:23.681Z,8.13
2023-05-09T05:57:50.751Z,8.28
2023-05-09T06:00:17.323Z,8.40
2023-05-09T06:02:46.102Z,8.50
2023-05-09T06:05:19.029Z,8.62
2023-05-09T06:07:45.456Z,8.74
2023-05-09T06:10:11.972Z,8.81
2023-05-09T06:12:38.464Z,8.90
2023-05-09T06:15:06.212Z,9.02
2023-05-09T06:17:34.805Z,9.14
2023-05-09T06:20:01.318Z,9.21
2023-05-09T06:22:27.876Z,9.31
2023-05-09T06:24:54.215Z,9.36
2023-05-09T06:27:20.664Z,9.45
2023-05-09T06:29:47.224Z,9.52
2023-05-09T06:32:13.714Z,9.54
2023-05-09T06:34:40.274Z,9.56
2023-05-09T06:37:06.673Z,9.64
2023-05-09T06:39:33.223Z,9.71
2023-05-09T06:41:59.736Z,9.77
2023-05-09T06:44:30.619Z,9.81
2023-05-09T06:46:57.003Z,9.89
2023-05-09T06:49:23.509Z,9.96
2023-05-09T06:51:49.927Z,10.07
2023-05-09T06:54:16.302Z,10.16
2023-05-09T06:56:42.833Z,10.22
2023-05-09T06:59:09.313Z,10.25
2023-05-09T07:01:35.840Z,10.31
2023-05-09T07:04:02.312Z,10.40
2023-05-09T07:06:28.809Z,10.46
2023-05-09T07:08:55.249Z,10.53
2023-05-09T07:11:24.966Z,10.59
2023-05-09T07:13:51.353Z,10.66
2023-05-09T07:16:17.732Z,10.72
2023-05-09T07:18:44.251Z,10.78
2023-05-09T07:21:10.573Z,10.86
2023-05-09T07:23:37.129Z,10.89
2023-05-09T07:26:03.478Z,10.98
2023-05-09T07:28:30.031Z,11.06
2023-05-09T07:30:56.663Z,11.15
2023-05-09T07:33:23.080Z,11.22
2023-05-09T07:35:49.626Z,11.29
2023-05-09T07:38:16.185Z,11.39
2023-05-09T07:40:42.567Z,11.46
2023-05-09T07:43:08.848Z,11.57
2023-05-09T07:45:35.219Z,11.64
2023-05-09T07:48:04.502Z,11.68
2023-05-09T07:50:31.007Z,11.77
2023-05-09T07:52:57.417Z,11.85
2023-05-09T07:55:23.834Z,11.84
2023-05-09T07:57:50.168Z,11.87
2023-05-09T08:00:16.610Z,11.92
2023-05-09T08:02:43.116Z,11.96
2023-05-09T08:05:09.543Z,12.00
2023-05-09T08:07:36.118Z,12.06
2023-05-09T08:10:03.494Z,12.09
2023-05-09T08:12:29.841Z,12.11
2023-05-09T08:14:56.182Z,12.09
2023-05-09T08:17:22.685Z,12.13
2023-05-09T08:19:49.049Z,12.22
2023-05-09T08:22:15.968Z,12.27
2023-05-09T08:24:42.321Z,12.39
2023-05-09T08:27:08.948Z,12.53
2023-05-09T08:29:35.293Z,12.65
2023-05-09T08:32:01.640Z,12.66
2023-05-09T08:34:28.045Z,12.67
2023-05-09T08:36:54.371Z,12.77
2023-05-09T08:39:20.996Z,12.85
2023-05-09T08:41:47.633Z,12.88
2023-05-09T08:44:14.016Z,12.97
2023-05-09T08:46:42.395Z,13.01
2023-05-09T08:49:09.166Z,13.12
2023-05-09T08:51:35.970Z,13.24
2023-05-09T08:54:05.091Z,13.34
2023-05-09T08:56:31.414Z,13.37
2023-05-09T08:58:57.949Z,13.40
2023-05-09T09:01:24.756Z,13.26
2023-05-09T09:03:51.331Z,13.16
2023-05-09T09:06:20.737Z,13.15
2023-05-09T09:08:47.282Z,13.33
2023-05-09T09:11:14.260Z,13.41
2023-05-09T09:13:41.530Z,13.52
2023-05-09T09:16:10.008Z,13.68
2023-05-09T09:18:37.083Z,13.84
2023-05-09T09:21:09.410Z,14.03
2023-05-09T09:23:48.129Z,14.16
2023-05-09T09:26:22.256Z,14.19
2023-05-09T09:28:48.780Z,14.08
2023-05-09T09:31:21.381Z,14.09
2023-05-09T09:33:48.276Z,14.15
2023-05-09T09:36:14.932Z,14.31
2023-05-09T09:38:41.791Z,14.49
2023-05-09T09:41:15.841Z,14.80
2023-05-09T09:43:44.776Z,15.09
2023-05-09T09:46:14.326Z,15.18
2023-05-09T09:48:45.461Z,15.34
2023-05-09T09:51:12.021Z,15.40
2023-05-09T09:53:41.383Z,15.34
2023-05-09T09:56:08.275Z,15.54
2023-05-09T09:58:34.865Z,15.39
2023-05-09T10:01:04.543Z,15.87
2023-05-09T10:03:43.845Z,16.35
2023-05-09T10:06:11.262Z,16.66
2023-05-09T10:08:37.982Z,16.97
2023-05-09T10:11:04.395Z,17.34
2023-05-09T10:13:34.039Z,17.72
2023-05-09T10:16:01.275Z,18.18
2023-05-09T10:18:31.853Z,18.50
2023-05-09T10:20:59.059Z,18.54
2023-05-09T10:23:28.693Z,18.28
2023-05-09T10:26:04.686Z,18.35
2023-05-09T10:28:32.606Z,18.67
2023-05-09T10:31:05.434Z,19.08
2023-05-09T10:33:36.442Z,19.42
2023-05-09T10:36:03.348Z,19.67
2023-05-09T10:38:30.289Z,19.74
2023-05-09T10:40:57.381Z,19.86
2023-05-09T10:43:23.826Z,20.29
2023-05-09T10:45:50.810Z,20.68
2023-05-09T10:48:17.369Z,20.86
2023-05-09T10:50:44.500Z,21.19
2023-05-09T10:53:11.263Z,21.48
2023-05-09T10:55:48.236Z,21.95
2023-05-09T10:58:18.941Z,22.59
2023-05-09T11:00:49.300Z,22.88
2023-05-09T11:03:15.821Z,23.31
2023-05-09T11:05:55.714Z,23.02
2023-05-09T11:08:25.355Z,23.00
2023-05-09T11:10:56.135Z,23.63
2023-05-09T11:13:24.041Z,23.66
2023-05-09T11:16:02.862Z,23.28
2023-05-09T11:18:30.031Z,23.39
2023-05-09T11:20:56.770Z,24.05
2023-05-09T11:23:29.932Z,24.39
2023-05-09T11:26:08.820Z,24.10
2023-05-09T11:28:36.539Z,24.82
2023-05-09T11:31:09.223Z,25.30
2023-05-09T11:33:36.439Z,25.76
2023-05-09T11:36:29.311Z,26.37
2023-05-09T11:39:06.162Z,26.82
2023-05-09T11:41:39.944Z,27.15
2023-05-09T11:44:35.972Z,26.27
2023-05-09T11:47:03.544Z,27.04
2023-05-09T11:49:30.001Z,27.62
2023-05-09T11:51:58.850Z,27.92
2023-05-09T11:54:25.462Z,28.55
2023-05-09T11:56:52.116Z,29.06
2023-05-09T11:59:21.310Z,29.36
2023-05-09T12:01:47.697Z,28.94
2023-05-09T12:04:19.114Z,27.56
2023-05-09T12:06:48.770Z,26.92
2023-05-09T12:09:17.396Z,27.69
2023-05-09T12:11:50.412Z,27.80
2023-05-09T12:14:26.964Z,28.99
2023-05-09T12:16:53.754Z,28.63
2023-05-09T12:19:20.357Z,28.82
2023-05-09T12:21:46.704Z,29.43
2023-05-09T12:24:13.016Z,29.73
2023-05-09T12:26:39.458Z,30.26
2023-05-09T12:29:06.093Z,30.74
2023-05-09T12:31:32.998Z,30.00
2023-05-09T12:34:01.595Z,27.88
2023-05-09T12:36:33.927Z,28.40
2023-05-09T12:39:08.381Z,29.54
2023-05-09T12:41:39.482Z,30.90
2023-05-09T12:44:20.613Z,30.09
2023-05-09T12:46:57.575Z,27.81
2023-05-09T12:49:26.973Z,26.94
2023-05-09T12:52:00.281Z,28.76
2023-05-09T12:54:28.328Z,30.43
2023-05-09T12:56:58.391Z,30.21
2023-05-09T12:59:25.720Z,28.88
2023-05-09T13:01:53.084Z,28.23
2023-05-09T13:04:23.114Z,29.67
2023-05-09T13:06:55.899Z,30.46
2023-05-09T13:09:23.175Z,29.68
2023-05-09T13:12:03.645Z,27.79
2023-05-09T13:14:30.158Z,27.01
2023-05-09T13:16:56.677Z,25.58
2023-05-09T13:19:23.044Z,24.47
2023-05-09T13:21:53.945Z,25.05
2023-05-09T13:24:20.538Z,25.76
2023-05-09T13:26:46.923Z,27.66
2023-05-09T13:29:33.590Z,28.29
2023-05-09T13:32:02.576Z,28.05
2023-05-09T13:34:38.913Z,27.44
2023-05-09T13:37:07.808Z,26.22
2023-05-09T13:39:36.653Z,25.76
2023-05-09T13:42:03.214Z,27.47
2023-05-09T13:44:35.374Z,29.14
2023-05-09T13:47:01.880Z,29.92
2023-05-09T13:49:30.876Z,28.48
2023-05-09T13:51:57.228Z,27.21
2023-05-09T13:54:23.862Z,28.00
2023-05-09T13:56:52.784Z,27.84
2023-05-09T13:59:19.170Z,25.88
2023-05-09T14:01:45.614Z,24.27
2023-05-09T14:04:12.051Z,23.05
2023-05-09T14:06:38.546Z,24.51
2023-05-09T14:09:04.855Z,26.20
2023-05-09T14:11:34.036Z,25.21
2023-05-09T14:14:00.663Z,24.08
2023-05-09T14:16:27.117Z,23.36
2023-05-09T14:18:53.459Z,23.60
2023-05-09T14:21:19.826Z,22.64
2023-05-09T14:23:46.151Z,22.04
2023-05-09T14:26:12.473Z,24.14
2023-05-09T14:28:41.488Z,26.64
2023-05-09T14:31:08.000Z,28.46
2023-05-09T14:33:34.321Z,27.82
2023-05-09T14:36:01.494Z,28.16
2023-05-09T14:38:28.157Z,28.30
2023-05-09T14:40:57.554Z,28.61
2023-05-09T14:43:26.677Z,29.81
2023-05-09T14:45:53.424Z,31.40
2023-05-09T14:48:19.836Z,32.68
2023-05-09T14:50:46.210Z,33.43
2023-05-09T14:53:12.900Z,33.82
2023-05-09T14:55:42.343Z,33.42
2023-05-09T14:58:11.003Z,33.22
2023-05-09T15:00:40.541Z,33.73
2023-05-09T15:03:10.110Z,34.41
2023-05-09T15:05:36.556Z,34.99
2023-05-09T15:08:03.021Z,35.34
2023-05-09T15:10:29.417Z,35.30
2023-05-09T15:13:00.677Z,35.05
2023-05-09T15:15:27.185Z,34.69
2023-05-09T15:17:53.832Z,34.48
2023-05-09T15:20:20.305Z,34.15
2023-05-09T15:22:47.584Z,34.22
2023-05-09T15:25:14.259Z,34.44
2023-05-09T15:27:43.714Z,34.79
2023-05-09T15:30:13.106Z,34.71
2023-05-09T15:32:42.443Z,34.51
2023-05-09T15:35:09.308Z,34.46
2023-05-09T15:37:35.918Z,34.26
2023-05-09T15:40:02.370Z,34.08
2023-05-09T15:42:29.049Z,33.39
2023-05-09T15:44:55.523Z,32.88
2023-05-09T15:47:21.914Z,32.85
2023-05-09T15:49:55.567Z,32.92
2023-05-09T15:52:21.962Z,33.11
2023-05-09T15:54:48.312Z,33.26
2023-05-09T15:57:22.083Z,33.34
2023-05-09T15:59:51.936Z,33.12
2023-05-09T16:02:18.323Z,32.63
2023-05-09T16:04:44.930Z,32.49
2023-05-09T16:07:11.406Z,32.53
2023-05-09T16:09:37.774Z,32.51
2023-05-09T16:12:04.337Z,32.31
2023-05-09T16:14:30.909Z,31.97
2023-05-09T16:16:57.365Z,31.87
2023-05-09T16:19:26.403Z,31.69
2023-05-09T16:21:52.912Z,31.66
2023-05-09T16:24:19.379Z,31.56
2023-05-09T16:26:48.720Z,31.48
2023-05-09T16:29:15.306Z,31.37
2023-05-09T16:31:46.986Z,31.14
2023-05-09T16:34:16.268Z,30.97
2023-05-09T16:36:42.774Z,30.59
2023-05-09T16:39:09.153Z,30.34
2023-05-09T16:41:35.645Z,30.17
2023-05-09T16:44:02.035Z,29.96
2023-05-09T16:46:28.436Z,29.62
2023-05-09T16:48:55.062Z,29.54
2023-05-09T16:51:21.540Z,29.28
2023-05-09T16:53:48.033Z,28.91
2023-05-09T16:56:14.649Z,28.73
2023-05-09T16:58:43.951Z,28.38
2023-05-09T17:01:12.941Z,26.81
2023-05-09T17:03:41.512Z,24.85
2023-05-09T17:06:11.079Z,23.13
2023-05-09T17:08:37.552Z,21.69
2023-05-09T17:11:04.635Z,20.53
2023-05-09T17:13:31.223Z,19.54
2023-05-09T17:15:57.992Z,18.72
2023-05-09T17:18:36.094Z,18.01
2023-05-09T17:21:04.685Z,17.35
2023-05-09T17:23:31.228Z,16.82
2023-05-09T17:25:57.863Z,16.36
2023-05-09T17:28:27.121Z,15.98
2023-05-09T17:30:53.864Z,15.66
2023-05-09T17:33:23.021Z,15.37
2023-05-09T17:35:49.580Z,15.09
2023-05-09T17:38:16.565Z,14.85
2023-05-09T17:40:43.567Z,14.65
2023-05-09T17:43:10.259Z,14.46
2023-05-09T17:45:37.104Z,14.29
2023-05-09T17:48:03.510Z,14.12
2023-05-09T17:50:39.368Z,13.96
2023-05-09T17:53:05.716Z,13.79
2023-05-09T17:55:34.950Z,13.62
2023-05-09T17:58:02.087Z,13.45
2023-05-09T18:00:28.635Z,13.30
2023-05-09T18:02:56.719Z,13.14
2023-05-09T18:05:24.171Z,12.99
2023-05-09T18:07:52.423Z,12.84
2023-05-09T18:10:19.340Z,12.69
2023-05-09T18:12:46.058Z,12.52
2023-05-09T18:15:13.006Z,12.39
2023-05-09T18:17:40.048Z,12.24
2023-05-09T18:20:07.637Z,12.13
2023-05-09T18:22:34.368Z,12.03
2023-05-09T18:25:00.976Z,11.92
2023-05-09T18:27:27.534Z,11.80
2023-05-09T18:29:54.043Z,11.68
2023-05-09T18:32:20.432Z,11.56
2023-05-09T18:34:46.768Z,11.44
2023-05-09T18:37:13.235Z,11.31
2023-05-09T18:39:39.680Z,11.20
2023-05-09T18:42:07.668Z,11.10
2023-05-09T18:44:35.427Z,11.01
2023-05-09T18:47:02.225Z,10.93
2023-05-09T18:49:31.686Z,10.87
2023-05-09T18:52:01.871Z,10.81
2023-05-09T18:54:29.250Z,10.73
2023-05-09T18:56:56.506Z,10.67
2023-05-09T18:59:23.925Z,10.62
2023-05-09T19:01:50.535Z,10.57
2023-05-09T19:04:17.040Z,10.50
2023-05-09T19:06:43.816Z,10.45
2023-05-09T19:09:10.184Z,10.37
2023-05-09T19:11:36.823Z,10.30
2023-05-09T19:14:03.280Z,10.23
2023-05-09T19:16:29.807Z,10.13
2023-05-09T19:18:57.226Z,10.06
2023-05-09T19:21:23.876Z,10.00
2023-05-09T19:23:50.365Z,9.93
2023-05-09T19:26:17.557Z,9.86
2023-05-09T19:28:44.898Z,9.80
2023-05-09T19:31:11.577Z,9.73
2023-05-09T19:33:38.287Z,9.68
2023-05-09T19:36:04.911Z,9.63
2023-05-09T19:38:31.455Z,9.57
2023-05-09T19:40:57.931Z,9.50
2023-05-09T19:43:24.673Z,9.44
2023-05-09T19:45:59.208Z,9.40
2023-05-09T19:48:25.738Z,9.38
2023-05-09T19:50:55.221Z,9.31
2023-05-09T19:53:23.184Z,9.23
2023-05-09T19:55:50.096Z,9.17
2023-05-09T19:58:17.714Z,9.10
2023-05-09T20:00:45.171Z,9.06
2023-05-09T20:03:11.857Z,9.04
2023-05-09T20:05:57.333Z,9.05
2023-05-09T20:08:24.111Z,9.05
2023-05-09T20:10:50.670Z,9.06
2023-05-09T20:13:17.328Z,9.07
2023-05-09T20:15:44.119Z,9.04
2023-05-09T20:18:10.709Z,8.98
2023-05-09T20:20:37.315Z,8.97
2023-05-09T20:23:03.869Z,8.97
2023-05-09T20:25:30.877Z,8.88
2023-05-09T20:27:57.496Z,8.80
2023-05-09T20:30:24.217Z,8.71
2023-05-09T20:32:50.853Z,8.62
2023-05-09T20:35:17.401Z,8.57
2023-05-09T20:37:44.133Z,8.52
2023-05-09T20:40:10.640Z,8.42
2023-05-09T20:42:37.272Z,8.34
2023-05-09T20:45:03.964Z,8.30
2023-05-09T20:47:33.471Z,8.31
2023-05-09T20:50:00.033Z,8.29
2023-05-09T20:52:26.469Z,8.27
2023-05-09T20:54:52.976Z,8.22
2023-05-09T20:57:19.368Z,8.20
2023-05-09T20:59:45.826Z,8.17
2023-05-09T21:02:12.296Z,8.12
2023-05-09T21:04:38.855Z,8.10
2023-05-09T21:07:05.377Z,8.06
2023-05-09T21:09:31.748Z,7.99
2023-05-09T21:11:58.117Z,7.94
2023-05-09T21:14:24.692Z,7.91
2023-05-09T21:16:59.082Z,7.88
2023-05-09T21:19:25.472Z,7.84
2023-05-09T21:21:51.947Z,7.78
2023-05-09T21:24:18.656Z,7.72
2023-05-09T21:26:47.782Z,7.66
2023-05-09T21:29:14.520Z,7.61
2023-05-09T21:31:41.091Z,7.58
2023-05-09T21:34:07.522Z,7.58
2023-05-09T21:36:35.094Z,7.57
2023-05-09T21:39:01.481Z,7.56
2023-05-09T21:41:28.075Z,7.56
2023-05-09T21:43:54.552Z,7.57
2023-05-09T21:46:21.159Z,7.56
2023-05-09T21:48:47.709Z,7.56
2023-05-09T21:51:14.044Z,7.55
2023-05-09T21:53:43.141Z,7.54
2023-05-09T21:56:09.504Z,7.54
2023-05-09T21:58:35.990Z,7.51
2023-05-09T22:01:02.709Z,7.46
2023-05-09T22:03:29.377Z,7.43
2023-05-09T22:05:55.727Z,7.38
2023-05-09T22:08:22.425Z,7.33
2023-05-09T22:10:48.726Z,7.30
2023-05-09T22:13:15.149Z,7.27
2023-05-09T22:15:41.721Z,7.26
2023-05-09T22:18:08.350Z,7.24
2023-05-09T22:20:34.847Z,7.20
2023-05-09T22:23:01.294Z,7.18
2023-05-09T22:25:27.729Z,7.13
2023-05-09T22:27:54.730Z,7.11
2023-05-09T22:30:21.050Z,7.08
2023-05-09T22:32:47.448Z,7.04
2023-05-09T22:35:13.746Z,7.02
2023-05-09T22:37:40.030Z,6.99
2023-05-09T22:40:06.654Z,6.99
2023-05-09T22:42:32.994Z,6.98
2023-05-09T22:44:59.511Z,6.98
2023-05-09T22:47:25.842Z,6.97
2023-05-09T22:49:52.405Z,6.95
2023-05-09T22:52:18.721Z,6.93
2023-05-09T22:54:45.030Z,6.91
2023-05-09T22:57:11.681Z,6.90
2023-05-09T22:59:38.095Z,6.88
2023-05-09T23:02:04.414Z,6.87
2023-05-09T23:04:30.779Z,6.84
2023-05-09T23:06:57.072Z,6.81
2023-05-09T23:09:23.359Z,6.78
2023-05-09T23:11:50.013Z,6.75
2023-05-09T23:14:16.305Z,6.71
2023-05-09T23:16:42.600Z,6.68
2023-05-09T23:19:09.183Z,6.65
2023-05-09T23:21:35.494Z,6.63
2023-05-09T23:24:01.844Z,6.62
2023-05-09T23:26:28.210Z,6.60
2023-05-09T23:28:54.548Z,6.58
2023-05-09T23:31:20.900Z,6.57
2023-05-09T23:33:47.207Z,6.56
2023-05-09T23:36:13.580Z,6.54
2023-05-09T23:38:39.854Z,6.53
2023-05-09T23:41:06.179Z,6.53
2023-05-09T23:43:32.483Z,6.51
2023-05-09T23:45:58.823Z,6.48
2023-05-09T23:48:25.139Z,6.45
2023-05-09T23:50:51.575Z,6.40
2023-05-09T23:53:20.319Z,6.36
2023-05-09T23:55:46.608Z,6.31
2023-05-09T23:58:12.875Z,6.27
